Terminal Aerodrome Forecast
Issued by NWS

Home | Current Version | Previous Version | Graphics & Text | Print | Product List | Glossary Off
Versions: 1 2 3 4 5 6 7 8 9 10 11 12 13 14 15 16 17

177
FTUS43 KMPX 221124
TAFRNH
TAF
KRNH 221124Z 2212/2312 14002KT 6SM BR OVC013
      TEMPO 2212/2213 3SM BR BKN006
     FM221300 00000KT P6SM FEW015 BKN040
      TEMPO 2213/2215 BKN015
     FM221800 VRB03KT P6SM SCT035
     FM230100 18002KT P6SM SKC=

USA.gov is the U.S. government's official web portal to all federal, state and local government web resources and services.